Time;durP1;ratioP1;P1;durP2;ratioP2;P2;SDS_P1;SDS_P2;PMS_P1;PMS_P2;Temp;Humidity;BMP_temperature;BMP_pressure;BME280_temperature;BME280_humidity;BME280_pressure;Samples;Min_cycle;Max_cycle;Signal;HPM_P1;HPM_P2
2021/07/20 04:57:39;;;;;;;17.10;12.50;;;14.60;99.90;;;;;;4931991;28;20987;-92
2021/07/20 05:07:55;;;;;;;14.87;11.33;;;14.90;99.90;;;;;;4908423;28;20641;-91
2021/07/20 05:11:23;;;;;;;17.87;12.57;;;14.90;99.90;;;;;;5052453;28;20682;-92
2021/07/20 05:14:31;;;;;;;19.40;13.17;;;15.00;99.90;;;;;;5070142;28;20630;-93
2021/07/20 05:17:01;;;;;;;14.30;12.73;;;15.00;99.90;;;;;;5072159;28;20617;-92
2021/07/20 05:19:59;;;;;;;16.37;13.30;;;15.10;99.90;;;;;;5046724;28;20629;-93
2021/07/20 05:34:10;;;;;;;16.00;12.40;;;15.00;99.90;;;;;;5079107;28;20753;-92
2021/07/20 06:49:56;;;;;;;16.40;11.17;;;16.70;99.90;;;;;;4861913;29;20625;-94
2021/07/20 07:58:35;;;;;;;13.10;10.23;;;18.60;98.00;;;;;;4918491;29;20592;-94
2021/07/20 08:34:51;;;;;;;11.83;10.27;;;20.00;96.70;;;;;;5016259;28;20631;-91
2021/07/20 09:11:45;;;;;;;15.90;10.27;;;20.90;92.80;;;;;;5053854;27;20949;-93
2021/07/20 10:47:41;;;;;;;;;;;;;;;;;;;;;
2021/07/20 10:51:05;;;;;;;13.53;11.77;;;23.80;84.20;;;;;;4880700;29;21063;-93
2021/07/20 11:01:22;;;;;;;12.90;11.40;;;24.90;81.10;;;;;;4830999;29;20609;-95
2021/07/20 11:27:11;;;;;;;12.40;11.20;;;25.20;73.90;;;;;;4696602;30;20623;-96
2021/07/20 11:30:35;;;;;;;12.50;11.20;;;25.50;71.30;;;;;;4695601;30;20651;-94
2021/07/20 12:26:53;;;;;;;12.30;11.10;;;32.90;53.00;;;;;;5537738;23;20685;-91
2021/07/20 13:29:37;;;;;;;9.30;8.60;;;33.60;47.90;;;;;;4927674;28;21166;-95
2021/07/20 14:31:21;;;;;;;10.23;9.23;;;30.60;43.90;;;;;;4793275;29;20715;-92
2021/07/20 14:34:40;;;;;;;10.70;8.87;;;31.60;43.70;;;;;;4900437;29;20638;-95
2021/07/20 14:40:39;;;;;;;10.30;9.47;;;31.10;44.10;;;;;;4838479;29;20702;-93
2021/07/20 14:43:11;;;;;;;9.80;8.90;;;30.00;47.00;;;;;;4849773;29;20696;-93
2021/07/20 14:46:24;;;;;;;10.50;9.50;;;31.40;46.30;;;;;;4933032;28;20623;-94
2021/07/20 14:48:59;;;;;;;11.17;9.13;;;31.00;45.30;;;;;;5012281;28;20710;-93
2021/07/20 14:51:49;;;;;;;11.07;10.07;;;31.00;46.30;;;;;;5019328;28;20626;-93
2021/07/20 14:54:33;;;;;;;10.53;9.63;;;31.40;45.60;;;;;;5031215;28;20626;-94
2021/07/20 14:57:01;;;;;;;9.13;8.33;;;30.70;45.00;;;;;;5042927;28;21171;-92
2021/07/20 15:03:02;;;;;;;10.50;9.53;;;31.60;46.70;;;;;;5004198;28;20682;-93
2021/07/20 15:05:56;;;;;;;10.13;9.23;;;31.50;44.60;;;;;;5030676;28;21025;-96
2021/07/20 15:09:03;;;;;;;9.57;8.83;;;31.30;44.90;;;;;;5029873;28;20635;-96
2021/07/20 15:11:39;;;;;;;12.30;9.80;;;30.90;45.30;;;;;;5029403;28;20631;-92
2021/07/20 15:14:12;;;;;;;8.83;8.03;;;31.10;45.30;;;;;;5030762;28;20642;-94
2021/07/20 15:16:46;;;;;;;10.10;9.10;;;30.40;46.70;;;;;;5030230;28;20629;-93
2021/07/20 15:19:16;;;;;;;14.67;9.40;;;30.20;47.10;;;;;;5031117;28;20627;-94
2021/07/20 15:21:47;;;;;;;9.83;8.93;;;30.20;47.20;;;;;;5030111;28;20634;-93
2021/07/20 15:24:17;;;;;;;10.43;9.53;;;30.10;45.80;;;;;;5030435;28;20709;-93
2021/07/20 15:26:50;;;;;;;10.47;9.57;;;29.50;46.90;;;;;;5030860;28;20634;-92
2021/07/20 15:29:19;;;;;;;11.07;10.07;;;29.00;48.30;;;;;;5030252;28;20655;-95
2021/07/20 15:31:57;;;;;;;10.73;9.70;;;28.40;48.70;;;;;;5030235;28;20603;-94
2021/07/20 15:34:32;;;;;;;9.67;8.87;;;27.10;47.80;;;;;;5030722;28;20625;-92
2021/07/20 15:40:31;;;;;;;11.53;9.83;;;26.70;51.40;;;;;;4947885;28;20637;-93
2021/07/20 15:45:58;;;;;;;10.57;9.47;;;25.60;51.50;;;;;;5048169;28;21131;-93
2021/07/20 15:48:27;;;;;;;10.33;9.23;;;25.40;52.90;;;;;;5050158;28;20764;-93
2021/07/20 15:50:56;;;;;;;12.33;10.27;;;25.60;52.40;;;;;;5046120;28;20627;-90
2021/07/20 15:53:24;;;;;;;10.80;9.73;;;25.60;52.90;;;;;;5030407;28;20991;-91
2021/07/20 15:55:51;;;;;;;11.70;10.00;;;25.50;51.00;;;;;;5030166;28;20625;-90
2021/07/20 15:58:19;;;;;;;12.53;9.50;;;25.30;52.00;;;;;;5029926;28;20976;-91
2021/07/20 16:00:47;;;;;;;12.10;10.60;;;25.30;53.40;;;;;;5041398;28;21252;-91
2021/07/20 16:03:15;;;;;;;12.40;10.13;;;25.20;52.20;;;;;;5049368;28;20741;-91
2021/07/20 16:05:42;;;;;;;12.17;10.87;;;25.10;53.00;;;;;;5030207;28;20619;-91
2021/07/20 16:08:11;;;;;;;12.20;11.00;;;24.90;53.30;;;;;;5030206;28;20633;-90
2021/07/20 16:10:38;;;;;;;18.90;10.60;;;24.80;53.40;;;;;;5029870;28;21137;-91
2021/07/20 16:13:05;;;;;;;14.07;10.73;;;24.70;52.30;;;;;;5029598;28;20631;-91
2021/07/20 16:15:34;;;;;;;11.00;9.90;;;24.70;54.00;;;;;;5029957;28;21275;-91
2021/07/20 16:18:03;;;;;;;12.80;10.80;;;24.30;53.90;;;;;;5030494;28;20976;-91
2021/07/20 16:20:33;;;;;;;12.07;10.83;;;24.30;54.60;;;;;;5030344;28;20611;-91
2021/07/20 16:23:02;;;;;;;11.90;10.47;;;24.30;53.90;;;;;;5029647;28;20666;-91
2021/07/20 16:25:32;;;;;;;11.07;9.97;;;24.20;54.00;;;;;;5030599;28;20635;-91
2021/07/20 16:28:00;;;;;;;12.47;10.20;;;24.20;55.90;;;;;;5030246;28;20619;-90
2021/07/20 16:30:29;;;;;;;12.43;10.17;;;23.90;54.00;;;;;;5030134;28;20626;-92
2021/07/20 16:32:57;;;;;;;11.90;10.33;;;23.90;55.10;;;;;;5029408;28;20619;-91
2021/07/20 16:35:25;;;;;;;13.17;11.87;;;24.20;54.70;;;;;;5029870;28;20619;-90
2021/07/20 16:37:57;;;;;;;13.40;10.83;;;24.10;54.10;;;;;;5039452;28;20640;-91
2021/07/20 16:40:27;;;;;;;13.50;11.60;;;24.00;54.60;;;;;;5050091;28;20622;-92
2021/07/20 16:42:58;;;;;;;11.53;10.10;;;23.90;55.40;;;;;;5032687;28;20695;-91
2021/07/20 16:45:27;;;;;;;12.63;11.33;;;23.70;55.30;;;;;;5010253;28;20638;-91
2021/07/20 16:47:54;;;;;;;11.40;10.07;;;23.70;55.00;;;;;;5012742;28;20638;-92
2021/07/20 16:50:23;;;;;;;10.80;9.80;;;23.60;55.60;;;;;;5013388;28;21064;-90
2021/07/20 16:52:51;;;;;;;12.03;10.73;;;23.60;55.80;;;;;;5032325;28;20626;-92
2021/07/20 16:55:20;;;;;;;11.43;10.20;;;23.60;55.50;;;;;;5033125;28;20642;-92
2021/07/20 16:57:48;;;;;;;12.23;10.93;;;23.70;56.20;;;;;;5033202;28;20627;-91
2021/07/20 17:00:17;;;;;;;12.53;10.30;;;23.60;55.40;;;;;;5039873;28;20640;-90
2021/07/20 17:02:45;;;;;;;11.13;9.63;;;23.40;55.70;;;;;;5051943;28;20616;-90
2021/07/20 17:05:14;;;;;;;11.83;10.43;;;23.40;56.90;;;;;;5036287;28;20661;-90
2021/07/20 17:07:42;;;;;;;12.20;9.80;;;23.40;57.00;;;;;;5033172;28;20608;-91
2021/07/20 17:10:11;;;;;;;11.13;9.73;;;23.40;58.40;;;;;;5033089;28;20616;-90
2021/07/20 17:12:40;;;;;;;11.60;9.13;;;23.30;57.90;;;;;;5032199;28;20642;-91
2021/07/20 17:15:08;;;;;;;11.27;9.63;;;23.30;56.40;;;;;;5032921;28;20626;-91
2021/07/20 17:17:36;;;;;;;11.57;10.40;;;23.20;56.30;;;;;;5032456;28;21172;-90
2021/07/20 17:20:05;;;;;;;11.07;9.87;;;23.10;56.50;;;;;;5033164;28;20621;-91
2021/07/20 17:22:33;;;;;;;13.50;11.00;;;23.00;55.80;;;;;;5031934;28;21185;-90
2021/07/20 17:25:00;;;;;;;15.43;11.23;;;23.00;56.10;;;;;;5032697;28;20656;-90
2021/07/20 17:27:29;;;;;;;12.90;11.67;;;23.10;56.60;;;;;;5032643;28;20609;-90
2021/07/20 17:29:58;;;;;;;15.00;10.83;;;23.00;57.20;;;;;;5035873;28;20620;-89
2021/07/20 17:32:26;;;;;;;13.40;10.83;;;23.10;57.90;;;;;;5050163;28;21226;-90
2021/07/20 17:35:02;;;;;;;10.73;9.60;;;23.00;55.30;;;;;;5038167;28;20637;-90
2021/07/20 17:37:29;;;;;;;11.27;9.87;;;22.90;55.90;;;;;;5037315;28;20624;-91
2021/07/20 17:40:00;;;;;;;12.73;10.33;;;22.70;56.20;;;;;;5023634;28;20648;-90
2021/07/20 17:42:28;;;;;;;14.83;11.30;;;22.80;57.70;;;;;;5031962;28;20621;-90
2021/07/20 17:44:56;;;;;;;11.07;9.97;;;22.70;58.60;;;;;;5032823;28;20774;-89
2021/07/20 17:47:26;;;;;;;13.70;10.00;;;22.70;58.10;;;;;;5032851;28;20610;-90
2021/07/20 17:49:55;;;;;;;11.37;10.27;;;22.50;57.10;;;;;;5032556;28;21188;-89
2021/07/20 17:52:24;;;;;;;10.37;9.23;;;22.50;57.20;;;;;;5031938;28;20645;-90
2021/07/20 17:55:00;;;;;;;10.70;9.60;;;22.50;57.90;;;;;;5030936;28;20618;-90
2021/07/20 17:57:29;;;;;;;9.87;8.57;;;22.40;57.20;;;;;;5031676;28;20617;-89
2021/07/20 18:00:02;;;;;;;12.30;10.33;;;22.30;58.30;;;;;;5028990;28;20725;-89
2021/07/20 18:02:29;;;;;;;10.10;9.07;;;22.30;58.70;;;;;;5030800;28;21223;-91
2021/07/20 18:04:56;;;;;;;10.83;9.37;;;22.30;59.30;;;;;;5031422;28;20654;-90
2021/07/20 18:07:24;;;;;;;12.27;9.43;;;22.20;59.50;;;;;;5030638;28;20615;-90
2021/07/20 18:09:52;;;;;;;14.23;10.90;;;22.20;59.50;;;;;;5031059;28;20690;-89
2021/07/20 18:12:20;;;;;;;12.60;9.60;;;22.20;60.10;;;;;;5031044;28;20626;-91
2021/07/20 18:14:47;;;;;;;12.07;9.60;;;22.00;58.90;;;;;;5031486;28;20610;-89
2021/07/20 18:17:14;;;;;;;12.77;10.03;;;22.00;59.40;;;;;;5028936;28;20618;-89
2021/07/20 18:19:41;;;;;;;9.87;8.87;;;21.90;59.50;;;;;;5031242;28;20666;-90
2021/07/20 18:22:09;;;;;;;10.37;8.50;;;21.80;59.90;;;;;;5030540;28;20633;-90
2021/07/20 18:24:37;;;;;;;11.30;9.70;;;21.80;60.60;;;;;;5031253;28;21360;-90
2021/07/20 18:27:05;;;;;;;15.97;9.93;;;21.90;64.10;;;;;;5030978;28;20602;-90
2021/07/20 18:29:32;;;;;;;9.67;8.77;;;21.80;62.20;;;;;;5030720;28;20989;-90
2021/07/20 18:31:59;;;;;;;14.17;8.90;;;21.70;63.90;;;;;;5030575;28;20668;-90
2021/07/20 18:34:27;;;;;;;11.50;9.93;;;21.70;61.80;;;;;;5030640;28;20993;-90
2021/07/20 18:36:55;;;;;;;15.90;9.50;;;21.60;60.60;;;;;;5030981;28;20618;-90
2021/07/20 18:39:23;;;;;;;10.23;9.17;;;21.50;62.10;;;;;;5030812;28;20981;-90
2021/07/20 18:41:52;;;;;;;10.07;8.97;;;21.40;62.00;;;;;;5030713;28;21203;-89
2021/07/20 18:44:19;;;;;;;10.23;8.23;;;21.40;65.10;;;;;;5028203;28;20693;-90
2021/07/20 18:46:47;;;;;;;9.23;8.17;;;21.40;62.30;;;;;;5030791;28;21083;-90
2021/07/20 18:49:14;;;;;;;10.03;8.90;;;21.30;64.40;;;;;;5030703;28;20631;-90
2021/07/20 18:51:41;;;;;;;11.37;8.50;;;21.20;65.40;;;;;;5030152;28;20612;-90
2021/07/20 18:54:08;;;;;;;9.80;8.57;;;21.10;66.60;;;;;;5030686;28;20973;-90
2021/07/20 18:56:35;;;;;;;9.93;8.50;;;21.10;63.70;;;;;;5030225;28;20799;-89
2021/07/20 18:59:04;;;;;;;11.80;8.97;;;20.90;66.60;;;;;;5030304;28;20623;-90
2021/07/20 19:01:31;;;;;;;10.20;9.20;;;20.80;66.40;;;;;;5029702;28;20629;-89
2021/07/20 19:03:58;;;;;;;11.13;9.00;;;20.70;68.00;;;;;;5030202;28;21059;-89
2021/07/20 19:06:25;;;;;;;9.13;7.63;;;20.60;66.90;;;;;;5030502;28;20612;-89
2021/07/20 19:08:52;;;;;;;9.73;7.90;;;20.50;69.00;;;;;;5030436;28;20624;-89
2021/07/20 19:11:19;;;;;;;9.73;8.63;;;20.50;69.90;;;;;;5029816;28;20988;-89
2021/07/20 19:13:49;;;;;;;10.43;8.13;;;20.30;70.70;;;;;;5031342;28;20681;-89
2021/07/20 19:16:18;;;;;;;9.73;8.73;;;20.20;70.30;;;;;;5030687;28;21175;-89
2021/07/20 19:18:45;;;;;;;9.90;8.53;;;20.10;71.00;;;;;;5031427;28;20660;-89
2021/07/20 19:21:13;;;;;;;11.50;8.20;;;20.00;70.80;;;;;;5030914;28;20957;-89
2021/07/20 19:23:40;;;;;;;10.87;8.63;;;19.90;71.60;;;;;;5031167;28;20611;-89
2021/07/20 19:26:07;;;;;;;11.67;8.83;;;19.80;71.20;;;;;;5030973;28;20661;-90
2021/07/20 19:28:34;;;;;;;9.83;8.83;;;19.80;71.90;;;;;;5030968;28;20658;-90
2021/07/20 19:31:01;;;;;;;9.40;8.43;;;19.80;72.40;;;;;;5030160;28;20674;-90
2021/07/20 19:33:29;;;;;;;11.00;7.93;;;19.60;73.40;;;;;;5029742;28;20626;-89
2021/07/20 19:35:58;;;;;;;10.37;7.97;;;19.60;73.50;;;;;;5029888;28;20977;-90
2021/07/20 19:38:25;;;;;;;9.53;8.43;;;19.60;74.20;;;;;;5029959;28;20610;-89
2021/07/20 19:40:52;;;;;;;12.50;9.10;;;19.60;75.00;;;;;;5030160;28;21237;-89
2021/07/20 19:43:18;;;;;;;9.67;8.50;;;19.40;76.10;;;;;;5029217;28;21168;-88
2021/07/20 19:45:46;;;;;;;11.70;9.50;;;19.30;76.20;;;;;;5029552;28;21345;-89
2021/07/20 19:48:13;;;;;;;11.03;7.73;;;19.40;76.90;;;;;;5030243;28;20615;-89
2021/07/20 19:50:43;;;;;;;9.13;8.10;;;19.30;76.80;;;;;;5027162;28;20622;-89
2021/07/20 19:53:12;;;;;;;11.03;7.90;;;19.20;77.70;;;;;;5029708;28;20710;-89
2021/07/20 19:55:39;;;;;;;10.13;8.90;;;19.00;78.20;;;;;;5025702;28;20744;-89
2021/07/20 19:58:06;;;;;;;12.40;9.00;;;18.90;78.40;;;;;;5029961;28;20685;-89
2021/07/20 20:00:34;;;;;;;10.20;8.63;;;18.80;79.20;;;;;;5040185;28;20687;-88
2021/07/20 20:03:01;;;;;;;8.57;7.50;;;18.80;79.40;;;;;;5050161;28;20626;-89
2021/07/20 20:05:28;;;;;;;10.30;9.07;;;18.80;80.20;;;;;;5050739;28;20696;-88
2021/07/20 20:07:57;;;;;;;9.80;8.10;;;18.80;80.70;;;;;;5050282;28;20615;-89
2021/07/20 20:10:24;;;;;;;9.47;8.30;;;18.80;80.30;;;;;;5040547;28;20623;-89
2021/07/20 20:12:51;;;;;;;10.23;8.10;;;18.90;80.60;;;;;;5028972;28;20641;-89
2021/07/20 20:15:19;;;;;;;9.30;8.07;;;18.90;80.20;;;;;;5029070;28;20654;-88
2021/07/20 20:17:46;;;;;;;11.93;8.30;;;18.80;81.00;;;;;;5027090;28;20661;-89
2021/07/20 20:20:15;;;;;;;9.83;8.03;;;18.80;80.40;;;;;;5031423;28;20722;-89
2021/07/20 20:22:43;;;;;;;11.70;9.10;;;18.80;78.70;;;;;;5030282;28;20618;-90
2021/07/20 20:25:13;;;;;;;11.73;8.17;;;18.80;79.90;;;;;;5033398;28;21275;-89
2021/07/20 20:27:41;;;;;;;9.33;8.43;;;18.60;80.20;;;;;;5032657;28;20615;-89
2021/07/20 20:30:10;;;;;;;9.23;7.30;;;18.50;80.80;;;;;;5032772;28;20621;-89
2021/07/20 20:32:38;;;;;;;12.40;9.10;;;18.40;80.60;;;;;;5032179;28;20635;-89
2021/07/20 20:35:07;;;;;;;11.13;8.13;;;18.30;79.70;;;;;;5032636;28;20992;-92
2021/07/20 20:37:34;;;;;;;10.60;8.27;;;18.40;78.10;;;;;;5032300;28;20645;-92
2021/07/20 20:40:01;;;;;;;10.10;8.27;;;18.40;75.90;;;;;;5032675;28;20700;-90
2021/07/20 20:42:30;;;;;;;8.90;8.00;;;18.40;76.00;;;;;;5032117;28;20965;-89
2021/07/20 20:44:56;;;;;;;17.93;9.03;;;18.50;75.90;;;;;;5032158;28;21591;-89
2021/07/20 20:47:23;;;;;;;9.33;8.17;;;18.50;76.40;;;;;;5032293;28;20631;-89
2021/07/20 20:49:50;;;;;;;14.30;8.37;;;18.60;76.30;;;;;;5030251;28;21174;-89
2021/07/20 20:52:18;;;;;;;10.63;8.33;;;18.60;76.80;;;;;;5031625;28;20633;-89
2021/07/20 20:54:45;;;;;;;10.60;7.93;;;18.60;77.10;;;;;;5032662;28;20627;-89
2021/07/20 20:57:12;;;;;;;10.90;8.53;;;18.60;77.10;;;;;;5032565;28;20709;-89
2021/07/20 20:59:40;;;;;;;10.40;8.40;;;18.50;76.50;;;;;;5032337;28;20634;-89
2021/07/20 21:02:07;;;;;;;9.67;7.90;;;18.50;77.20;;;;;;5031480;28;20663;-88
2021/07/20 21:04:34;;;;;;;10.90;8.27;;;18.50;77.00;;;;;;5031748;28;20620;-88
2021/07/20 21:07:01;;;;;;;9.13;8.23;;;18.60;77.10;;;;;;5031965;28;20712;-89
2021/07/20 21:09:29;;;;;;;13.23;8.20;;;18.60;77.20;;;;;;5032494;28;21252;-89
2021/07/20 21:11:56;;;;;;;12.27;8.90;;;18.60;77.10;;;;;;5032686;28;20957;-89
2021/07/20 21:14:23;;;;;;;7.83;7.13;;;18.60;77.90;;;;;;5032128;28;20618;-88
2021/07/20 21:16:52;;;;;;;13.37;7.90;;;18.60;77.10;;;;;;5029263;28;20979;-89
2021/07/20 21:19:19;;;;;;;8.50;7.60;;;18.60;76.70;;;;;;5031357;28;21167;-89
2021/07/20 21:21:46;;;;;;;9.50;7.47;;;18.50;77.10;;;;;;5030921;28;20635;-89
2021/07/20 21:24:14;;;;;;;10.70;8.20;;;18.50;77.60;;;;;;5031968;28;20627;-89
2021/07/20 21:26:41;;;;;;;12.73;7.03;;;18.50;77.50;;;;;;5031690;28;20659;-89
2021/07/20 21:29:08;;;;;;;10.20;8.80;;;18.50;77.50;;;;;;5031708;28;20668;-89
2021/07/20 21:31:35;;;;;;;11.60;7.93;;;18.50;77.30;;;;;;5030996;28;20634;-89
2021/07/20 21:34:05;;;;;;;11.07;7.73;;;18.50;77.00;;;;;;5030334;28;20618;-89
2021/07/20 21:36:32;;;;;;;10.80;8.27;;;18.50;78.00;;;;;;5029373;28;20610;-90
2021/07/20 21:38:59;;;;;;;8.30;7.50;;;18.40;76.70;;;;;;5031351;28;20614;-89
2021/07/20 21:41:26;;;;;;;8.57;7.77;;;18.30;78.50;;;;;;5031113;28;21167;-89
2021/07/20 21:43:53;;;;;;;8.63;7.80;;;18.40;77.40;;;;;;5031693;28;20955;-89
2021/07/20 21:46:20;;;;;;;10.00;7.13;;;18.40;77.80;;;;;;5030873;28;20657;-89
2021/07/20 21:48:47;;;;;;;8.63;7.43;;;18.40;76.80;;;;;;5031363;28;20621;-90
2021/07/20 21:51:15;;;;;;;9.57;8.00;;;18.40;76.70;;;;;;5030991;28;20615;-89
2021/07/20 21:53:42;;;;;;;10.03;7.10;;;18.40;75.70;;;;;;5031101;28;20625;-89
2021/07/20 21:56:09;;;;;;;10.67;7.27;;;18.30;78.10;;;;;;5021306;28;20638;-90
2021/07/20 21:58:36;;;;;;;8.30;7.40;;;18.20;77.70;;;;;;5031148;28;20617;-90
2021/07/20 22:01:04;;;;;;;11.60;6.83;;;18.10;78.00;;;;;;5029798;28;21068;-89
2021/07/20 22:03:32;;;;;;;11.03;8.50;;;18.00;78.20;;;;;;5025324;28;21261;-89
2021/07/20 22:06:01;;;;;;;8.93;6.93;;;17.90;79.70;;;;;;5020174;28;20698;-89
2021/07/20 22:08:29;;;;;;;8.33;7.53;;;17.80;80.40;;;;;;5021401;28;20626;-90
2021/07/20 22:10:57;;;;;;;9.27;7.53;;;17.80;80.30;;;;;;5015677;28;20729;-90
2021/07/20 22:13:24;;;;;;;8.50;7.13;;;17.80;80.00;;;;;;5018949;28;20725;-90
2021/07/20 22:15:51;;;;;;;12.23;8.97;;;17.80;80.10;;;;;;5019462;28;20620;-90
2021/07/20 22:18:18;;;;;;;8.97;8.07;;;17.80;80.10;;;;;;5020048;28;20625;-90
2021/07/20 22:20:45;;;;;;;9.57;7.60;;;17.80;81.70;;;;;;5021178;28;21012;-89
2021/07/20 22:23:14;;;;;;;13.43;8.10;;;17.60;80.10;;;;;;5019003;28;20659;-90
2021/07/20 22:25:49;;;;;;;9.57;7.33;;;17.60;79.40;;;;;;5011954;28;20676;-90
2021/07/20 22:28:17;;;;;;;8.10;7.30;;;17.70;80.80;;;;;;5019899;28;21220;-90
2021/07/20 22:30:45;;;;;;;9.77;6.90;;;17.60;81.80;;;;;;5019250;28;20644;-90
2021/07/20 22:33:15;;;;;;;8.40;7.30;;;17.50;81.70;;;;;;5018923;28;20617;-90
2021/07/20 22:35:44;;;;;;;8.73;7.53;;;17.50;81.10;;;;;;5019305;28;21031;-90
2021/07/20 22:38:11;;;;;;;8.17;7.10;;;17.50;80.70;;;;;;5018690;28;20618;-91
2021/07/20 22:40:38;;;;;;;7.83;6.97;;;17.60;82.10;;;;;;5012671;28;20645;-90
2021/07/20 22:43:08;;;;;;;8.20;7.17;;;17.60;81.30;;;;;;5019910;28;20628;-90
2021/07/20 22:45:35;;;;;;;8.80;7.17;;;17.60;81.80;;;;;;5021056;28;20654;-90
2021/07/20 22:48:02;;;;;;;9.87;7.97;;;17.60;81.00;;;;;;5021434;28;20612;-90
2021/07/20 22:50:32;;;;;;;7.63;6.40;;;17.60;82.90;;;;;;5020435;28;20621;-91
2021/07/20 22:52:59;;;;;;;8.40;6.73;;;17.60;83.60;;;;;;5020339;28;21162;-89
2021/07/20 22:55:28;;;;;;;9.13;7.93;;;17.50;83.10;;;;;;5010216;28;20669;-91
2021/07/20 22:57:57;;;;;;;11.73;7.53;;;17.60;83.60;;;;;;5011189;28;21186;-90
2021/07/20 23:00:28;;;;;;;9.00;7.53;;;17.50;84.10;;;;;;5011410;28;20971;-90
2021/07/20 23:02:55;;;;;;;12.60;8.20;;;17.50;83.10;;;;;;5010489;28;20627;-90
2021/07/20 23:05:24;;;;;;;8.73;7.07;;;17.50;83.50;;;;;;5010350;28;20655;-90
2021/07/20 23:07:52;;;;;;;8.77;7.63;;;17.50;83.80;;;;;;5011255;28;20620;-90
2021/07/20 23:10:25;;;;;;;9.90;7.00;;;17.30;84.50;;;;;;5005513;28;20917;-90
2021/07/20 23:12:52;;;;;;;10.33;7.93;;;17.20;85.70;;;;;;5047119;28;20647;-91
2021/07/20 23:15:19;;;;;;;8.83;7.40;;;17.20;85.70;;;;;;5048719;28;21254;-91
2021/07/20 23:17:48;;;;;;;9.20;7.50;;;17.20;85.70;;;;;;5049786;28;20639;-89
2021/07/20 23:20:16;;;;;;;13.13;7.47;;;17.20;86.00;;;;;;5050559;28;20648;-90
2021/07/20 23:22:44;;;;;;;8.37;7.57;;;17.20;84.60;;;;;;5049671;28;21169;-90
2021/07/20 23:25:14;;;;;;;8.57;7.27;;;17.20;85.40;;;;;;5043876;28;21027;-90
2021/07/20 23:27:41;;;;;;;9.23;8.33;;;17.10;86.50;;;;;;5050100;28;20608;-90
2021/07/20 23:30:12;;;;;;;8.17;7.20;;;17.00;86.90;;;;;;5050165;28;20623;-89
2021/07/20 23:32:39;;;;;;;7.90;7.10;;;16.90;86.50;;;;;;5050014;28;20622;-90
2021/07/20 23:35:10;;;;;;;10.30;8.13;;;16.80;87.10;;;;;;5050419;28;20658;-91
2021/07/20 23:37:37;;;;;;;11.87;6.87;;;16.70;88.80;;;;;;5050331;28;20632;-90
2021/07/20 23:40:07;;;;;;;9.20;8.20;;;16.70;88.40;;;;;;5047790;28;21041;-90
2021/07/20 23:42:34;;;;;;;10.90;7.47;;;16.60;89.20;;;;;;5045329;28;20611;-89
2021/07/20 23:45:01;;;;;;;11.07;7.77;;;16.50;88.90;;;;;;5049522;28;20693;-90
2021/07/20 23:47:28;;;;;;;6.77;6.07;;;16.60;88.70;;;;;;5050421;28;21059;-90
2021/07/20 23:49:55;;;;;;;9.70;6.63;;;16.50;90.10;;;;;;5050199;28;21193;-89
2021/07/20 23:52:24;;;;;;;9.87;7.57;;;16.50;90.50;;;;;;5034107;28;20623;-90
2021/07/20 23:54:52;;;;;;;8.80;7.77;;;16.60;90.30;;;;;;5030548;28;20914;-90
2021/07/20 23:57:19;;;;;;;9.00;7.70;;;16.70;90.70;;;;;;5025297;28;20714;-90
2021/07/20 23:59:46;;;;;;;8.97;6.20;;;16.70;90.50;;;;;;5034498;28;20638;-89
